Time;durP1;ratioP1;P1;durP2;ratioP2;P2;SDS_P1;SDS_P2;PMS_P1;PMS_P2;Temp;Humidity;BMP_temperature;BMP_pressure;BME280_temperature;BME280_humidity;BME280_pressure;Samples;Min_cycle;Max_cycle;Signal;HPM_P1;HPM_P2
2024/02/09 00:00:10;;;;;;;2.00;1.65;;;1.20;99.90;;;;;;4909869;28;20649;-55
2024/02/09 00:02:42;;;;;;;2.80;1.10;;;1.20;99.90;;;;;;4935248;28;21840;-51
2024/02/09 00:05:09;;;;;;;4.18;1.60;;;1.10;99.90;;;;;;4948409;28;20045;-55
2024/02/09 00:07:35;;;;;;;4.15;1.77;;;1.10;99.90;;;;;;4907290;28;20292;-48
2024/02/09 00:10:01;;;;;;;3.28;1.90;;;1.20;99.90;;;;;;4890612;28;20100;-48
2024/02/09 00:12:27;;;;;;;4.63;2.33;;;1.20;99.90;;;;;;4914736;28;20033;-49
2024/02/09 00:14:52;;;;;;;3.45;1.83;;;1.20;99.90;;;;;;4936580;28;20029;-47
2024/02/09 00:17:18;;;;;;;7.00;2.63;;;1.10;99.90;;;;;;4890432;28;21308;-55
2024/02/09 00:19:44;;;;;;;4.28;2.33;;;1.10;99.90;;;;;;4943286;28;20140;-51
2024/02/09 00:22:12;;;;;;;4.03;2.17;;;1.10;99.90;;;;;;4882391;28;20499;-51
2024/02/09 00:24:42;;;;;;;6.72;3.15;;;1.10;99.90;;;;;;4912076;28;20135;-51
2024/02/09 00:27:08;;;;;;;3.10;2.75;;;1.10;99.90;;;;;;4895013;28;20037;-49
2024/02/09 00:29:34;;;;;;;2.95;2.55;;;1.10;99.90;;;;;;4956880;28;21492;-49
2024/02/09 00:31:59;;;;;;;5.22;3.03;;;1.10;99.90;;;;;;4943262;28;20033;-48
2024/02/09 00:34:25;;;;;;;5.60;4.30;;;1.10;99.90;;;;;;4887253;28;20658;-48
2024/02/09 00:36:51;;;;;;;4.38;3.20;;;1.10;99.90;;;;;;4880631;28;20038;-57
2024/02/09 00:39:19;;;;;;;5.18;3.88;;;1.10;99.90;;;;;;4908660;28;21255;-48
2024/02/09 00:41:46;;;;;;;4.75;3.03;;;1.10;99.90;;;;;;4928088;28;20037;-47
2024/02/09 00:44:12;;;;;;;7.47;3.72;;;1.10;99.90;;;;;;4911504;28;20029;-55
2024/02/09 00:46:42;;;;;;;6.35;4.03;;;1.10;99.90;;;;;;4882834;28;20033;-51
2024/02/09 00:49:08;;;;;;;5.47;4.47;;;1.00;99.90;;;;;;4898077;28;21512;-50
2024/02/09 00:51:34;;;;;;;4.65;3.55;;;1.00;99.90;;;;;;4964372;28;20022;-53
2024/02/09 00:54:03;;;;;;;4.65;3.05;;;1.10;99.90;;;;;;4904228;28;20029;-56
2024/02/09 00:56:28;;;;;;;5.68;3.55;;;1.00;99.90;;;;;;4943062;28;21328;-50
2024/02/09 00:58:55;;;;;;;3.15;2.83;;;1.10;99.90;;;;;;4948795;28;20038;-52
2024/02/09 01:01:21;;;;;;;4.05;3.28;;;1.00;99.90;;;;;;4889402;28;20398;-51
2024/02/09 01:03:47;;;;;;;5.05;3.28;;;1.00;99.90;;;;;;4937255;28;20144;-57
2024/02/09 01:06:12;;;;;;;4.35;3.25;;;1.10;99.90;;;;;;4932401;28;20372;-47
2024/02/09 01:08:41;;;;;;;4.35;3.33;;;1.00;99.90;;;;;;5018255;28;20049;-50
2024/02/09 01:11:09;;;;;;;6.18;3.42;;;1.10;99.90;;;;;;4945130;28;20470;-52
2024/02/09 02:46:31;;;;;;;4.93;3.72;;;0.80;99.90;;;;;;4914830;28;20051;-65
2024/02/09 03:05:28;;;;;;;3.80;2.80;;;0.80;99.90;;;;;;4898095;28;20042;-65
2024/02/09 03:07:56;;;;;;;3.58;3.28;;;0.80;99.90;;;;;;4930107;28;20117;-65
2024/02/09 03:10:22;;;;;;;4.43;2.63;;;0.80;99.90;;;;;;4900180;28;20054;-66
2024/02/09 03:12:48;;;;;;;4.10;2.88;;;0.80;99.90;;;;;;4970371;28;20062;-65
2024/02/09 03:15:18;;;;;;;4.47;3.20;;;0.80;99.90;;;;;;4944128;28;20061;-66
2024/02/09 03:17:45;;;;;;;4.70;3.25;;;0.80;99.90;;;;;;4929292;28;20482;-66
2024/02/09 03:20:11;;;;;;;3.75;3.03;;;0.80;99.90;;;;;;4906636;28;20022;-68
2024/02/09 03:22:37;;;;;;;3.78;3.17;;;0.70;99.90;;;;;;4937561;28;22422;-66
2024/02/09 03:25:07;;;;;;;2.92;2.63;;;0.70;99.90;;;;;;4929244;28;22212;-65
2024/02/09 03:27:35;;;;;;;3.63;2.97;;;0.70;99.90;;;;;;4954042;28;20034;-66
2024/02/09 03:30:02;;;;;;;5.30;3.10;;;0.70;99.90;;;;;;4929518;28;20026;-66
2024/02/09 03:32:29;;;;;;;4.18;2.85;;;0.70;99.90;;;;;;4893830;28;20526;-65
2024/02/09 03:34:55;;;;;;;4.57;3.05;;;0.70;99.90;;;;;;4892863;28;20092;-66
2024/02/09 03:37:26;;;;;;;3.47;2.83;;;0.60;99.90;;;;;;4892964;28;20026;-66
2024/02/09 03:39:58;;;;;;;3.40;2.92;;;0.60;99.90;;;;;;4954914;28;20177;-66
2024/02/09 03:42:25;;;;;;;4.75;3.30;;;0.60;99.90;;;;;;4951466;28;20030;-66
2024/02/09 03:44:51;;;;;;;5.07;3.00;;;0.60;99.90;;;;;;4945914;28;20026;-67
2024/02/09 03:47:19;;;;;;;5.50;3.53;;;0.60;99.90;;;;;;4893746;28;20512;-66
2024/02/09 03:49:49;;;;;;;3.95;2.58;;;0.60;99.90;;;;;;4889039;28;20058;-65
2024/02/09 03:52:15;;;;;;;4.20;3.28;;;0.60;99.90;;;;;;4887913;28;21622;-67
2024/02/09 03:54:41;;;;;;;4.57;3.00;;;0.60;99.90;;;;;;4953269;28;20041;-66
2024/02/09 03:57:07;;;;;;;3.83;2.83;;;0.60;99.90;;;;;;4923609;28;20034;-65
2024/02/09 03:59:32;;;;;;;4.50;3.05;;;0.70;99.90;;;;;;4922607;28;20057;-65
2024/02/09 04:01:59;;;;;;;4.57;3.67;;;0.60;99.90;;;;;;4921998;28;20462;-68
2024/02/09 04:04:26;;;;;;;4.57;3.40;;;0.60;99.90;;;;;;4891366;28;20026;-67
2024/02/09 04:06:52;;;;;;;3.60;3.13;;;0.60;99.90;;;;;;4909945;28;20221;-68
2024/02/09 04:09:18;;;;;;;5.07;3.80;;;0.60;99.90;;;;;;4936243;28;20057;-66
2024/02/09 04:11:43;;;;;;;3.45;2.83;;;0.60;99.90;;;;;;4963018;28;20042;-68
2024/02/09 04:14:09;;;;;;;4.78;3.13;;;0.60;99.90;;;;;;4921940;28;20474;-68
2024/02/09 04:16:34;;;;;;;6.93;3.15;;;0.60;99.90;;;;;;4937833;28;20069;-67
2024/02/09 04:19:00;;;;;;;3.40;3.03;;;0.60;99.90;;;;;;4930271;28;20479;-69
2024/02/09 04:21:26;;;;;;;4.50;3.47;;;0.60;99.90;;;;;;4935201;28;20026;-68
2024/02/09 04:23:54;;;;;;;3.85;3.15;;;0.60;99.90;;;;;;4955704;28;20108;-67
2024/02/09 04:26:20;;;;;;;4.40;3.22;;;0.50;99.90;;;;;;4919264;28;20034;-65
2024/02/09 04:28:45;;;;;;;4.45;3.45;;;0.60;99.90;;;;;;4909408;28;20064;-68
2024/02/09 04:31:11;;;;;;;5.13;3.50;;;0.50;99.90;;;;;;4919111;28;20026;-67
2024/02/09 04:33:37;;;;;;;5.72;4.03;;;0.60;99.90;;;;;;4968413;28;20026;-66
2024/02/09 04:36:02;;;;;;;3.67;2.85;;;0.50;99.90;;;;;;4951804;28;20120;-67
2024/02/09 04:38:28;;;;;;;4.72;3.40;;;0.50;99.90;;;;;;4907308;28;20026;-67
2024/02/09 04:40:55;;;;;;;3.53;3.20;;;0.50;99.90;;;;;;4911699;28;20018;-67
2024/02/09 04:43:21;;;;;;;4.15;3.65;;;0.50;99.90;;;;;;4909815;28;20026;-66
2024/02/09 04:45:47;;;;;;;3.53;3.22;;;0.50;99.90;;;;;;4963430;28;20088;-66
2024/02/09 04:48:13;;;;;;;3.28;2.92;;;0.50;99.90;;;;;;4919264;28;20559;-68
2024/02/09 04:50:38;;;;;;;5.28;3.13;;;0.50;99.90;;;;;;4935920;28;20446;-65
2024/02/09 04:53:04;;;;;;;4.18;3.00;;;0.50;99.90;;;;;;4907912;28;21807;-67
2024/02/09 04:55:29;;;;;;;3.65;2.80;;;0.50;99.90;;;;;;4922000;28;20479;-67
2024/02/09 04:57:55;;;;;;;3.97;3.13;;;0.60;99.90;;;;;;4929885;28;20044;-67
2024/02/09 05:00:21;;;;;;;4.43;3.05;;;0.50;99.90;;;;;;4915877;28;20039;-67
2024/02/09 05:02:46;;;;;;;4.57;2.67;;;0.50;99.90;;;;;;4942730;28;20026;-67
2024/02/09 05:05:13;;;;;;;4.82;2.70;;;0.50;99.90;;;;;;4900422;28;20105;-67
2024/02/09 05:07:38;;;;;;;2.50;2.30;;;0.50;99.90;;;;;;4925225;28;20058;-67
2024/02/09 05:10:05;;;;;;;4.40;2.75;;;0.50;99.90;;;;;;4897132;28;20114;-67
2024/02/09 05:12:31;;;;;;;3.83;3.20;;;0.50;99.90;;;;;;4926166;28;21451;-66
2024/02/09 05:14:57;;;;;;;4.45;2.88;;;0.50;99.90;;;;;;4936921;28;20030;-67
2024/02/09 05:17:23;;;;;;;4.13;2.80;;;0.50;99.90;;;;;;4894402;28;20030;-67
2024/02/09 05:19:50;;;;;;;4.65;2.88;;;0.50;99.90;;;;;;4900084;28;20531;-68
2024/02/09 05:22:16;;;;;;;3.72;2.78;;;0.50;99.90;;;;;;4905604;28;21002;-66
2024/02/09 05:24:42;;;;;;;3.72;2.60;;;0.50;99.90;;;;;;4919329;28;20117;-66
2024/02/09 05:27:10;;;;;;;4.68;2.42;;;0.50;99.90;;;;;;4931864;28;20038;-67
2024/02/09 05:29:35;;;;;;;3.17;2.88;;;0.50;99.90;;;;;;4920357;28;20035;-66
2024/02/09 05:32:01;;;;;;;4.25;2.38;;;0.40;99.90;;;;;;4895461;28;20034;-66
2024/02/09 05:34:26;;;;;;;3.15;2.38;;;0.40;99.90;;;;;;4898054;28;20030;-66
2024/02/09 05:36:54;;;;;;;4.15;2.92;;;0.50;99.90;;;;;;4929856;28;20118;-66
2024/02/09 05:39:19;;;;;;;3.25;2.25;;;0.40;99.90;;;;;;4877671;28;20030;-67
2024/02/09 05:41:45;;;;;;;3.30;2.70;;;0.40;99.90;;;;;;4927818;28;20041;-66
2024/02/09 05:44:12;;;;;;;3.25;2.20;;;0.40;99.90;;;;;;4893831;28;20479;-66
2024/02/09 05:46:37;;;;;;;2.90;2.47;;;0.40;99.90;;;;;;4892418;28;20039;-66
2024/02/09 05:49:06;;;;;;;2.60;2.25;;;0.40;99.90;;;;;;4893212;28;20030;-68
2024/02/09 05:51:33;;;;;;;3.03;2.38;;;0.40;99.90;;;;;;4939308;28;21418;-67
2024/02/09 05:53:59;;;;;;;3.70;2.40;;;0.40;99.90;;;;;;4919090;28;20038;-65
2024/02/09 05:56:29;;;;;;;2.28;2.08;;;0.40;99.90;;;;;;4882656;28;20376;-67
2024/02/09 05:58:56;;;;;;;2.40;2.08;;;0.40;99.90;;;;;;4865668;28;20617;-67
2024/02/09 06:01:22;;;;;;;3.15;2.50;;;0.40;99.90;;;;;;4919096;28;22136;-66
2024/02/09 06:03:48;;;;;;;4.50;2.28;;;0.40;99.90;;;;;;4907859;28;20027;-66
2024/02/09 06:06:20;;;;;;;3.55;2.88;;;0.40;99.90;;;;;;4885027;28;20040;-67
2024/02/09 06:08:50;;;;;;;2.80;2.50;;;0.40;99.90;;;;;;4914786;28;20160;-66
2024/02/09 06:11:16;;;;;;;4.00;2.13;;;0.40;99.90;;;;;;4869875;28;20042;-65
2024/02/09 06:13:45;;;;;;;2.42;2.22;;;0.40;99.90;;;;;;4885696;28;20080;-66
2024/02/09 06:16:16;;;;;;;3.05;2.25;;;0.40;99.90;;;;;;4879081;28;20038;-66
2024/02/09 06:18:45;;;;;;;3.08;2.42;;;0.40;99.90;;;;;;4903644;28;20038;-66
2024/02/09 06:21:16;;;;;;;3.35;2.35;;;0.40;99.90;;;;;;4922421;28;20315;-68
2024/02/09 06:23:44;;;;;;;3.53;2.75;;;0.40;99.90;;;;;;4941978;28;20030;-66
2024/02/09 06:26:10;;;;;;;3.67;2.28;;;0.40;99.90;;;;;;4856527;28;21232;-66
2024/02/09 06:28:35;;;;;;;3.35;2.45;;;0.40;99.90;;;;;;4882334;28;20030;-67
2024/02/09 06:31:02;;;;;;;2.47;2.28;;;0.40;99.90;;;;;;4871841;28;20038;-68
2024/02/09 06:33:27;;;;;;;2.90;2.25;;;0.40;99.90;;;;;;4888273;28;20026;-67
2024/02/09 06:35:56;;;;;;;3.50;2.72;;;0.50;99.90;;;;;;4908794;28;20643;-67
2024/02/09 06:38:22;;;;;;;3.08;2.72;;;0.40;99.90;;;;;;4881622;28;20037;-67
2024/02/09 06:40:50;;;;;;;2.80;2.47;;;0.50;99.90;;;;;;4859448;28;20026;-69
2024/02/09 06:43:18;;;;;;;2.67;2.25;;;0.40;99.90;;;;;;4880012;28;22235;-67
2024/02/09 06:45:44;;;;;;;3.30;2.47;;;0.50;99.90;;;;;;4902318;28;20065;-67
2024/02/09 06:48:10;;;;;;;2.85;2.20;;;0.40;99.90;;;;;;4915560;28;20022;-69
2024/02/09 06:50:36;;;;;;;3.28;2.97;;;0.40;99.90;;;;;;4890996;28;20038;-67
2024/02/09 06:53:05;;;;;;;3.40;2.83;;;0.40;99.90;;;;;;4843427;28;20073;-67
2024/02/09 06:55:31;;;;;;;3.72;2.80;;;0.40;99.90;;;;;;4873199;28;20031;-67
2024/02/09 06:57:57;;;;;;;3.38;2.90;;;0.40;99.90;;;;;;4889848;28;20037;-68
2024/02/09 07:00:25;;;;;;;3.42;2.88;;;0.40;99.90;;;;;;4901412;28;20085;-68
2024/02/09 07:02:51;;;;;;;3.58;2.35;;;0.40;99.90;;;;;;4930516;28;20061;-67
2024/02/09 07:05:19;;;;;;;4.30;3.15;;;0.50;99.90;;;;;;4875659;28;20475;-67
2024/02/09 07:07:49;;;;;;;4.32;2.90;;;0.50;99.90;;;;;;4886020;28;20130;-69
2024/02/09 07:10:17;;;;;;;3.70;3.25;;;0.50;99.90;;;;;;4876927;28;20484;-67
2024/02/09 07:12:45;;;;;;;3.63;3.28;;;0.50;99.90;;;;;;4887672;28;20057;-68
2024/02/09 07:15:16;;;;;;;3.38;3.08;;;0.50;99.90;;;;;;4878346;28;20422;-69
2024/02/09 07:17:45;;;;;;;4.07;3.17;;;0.50;99.90;;;;;;4882919;28;20719;-67
2024/02/09 07:20:16;;;;;;;3.35;2.85;;;0.50;99.90;;;;;;4836882;28;20046;-67
2024/02/09 07:22:42;;;;;;;3.38;3.03;;;0.50;99.90;;;;;;4865594;28;20498;-67
2024/02/09 07:25:07;;;;;;;4.10;2.75;;;0.50;99.90;;;;;;4856758;28;20030;-69
2024/02/09 07:27:33;;;;;;;3.88;3.28;;;0.50;99.90;;;;;;4900422;28;21684;-66
2024/02/09 07:29:59;;;;;;;4.13;3.35;;;0.50;99.90;;;;;;4908258;28;20467;-68
2024/02/09 07:32:25;;;;;;;5.13;3.25;;;0.50;99.90;;;;;;4829807;28;20038;-69
2024/02/09 07:34:52;;;;;;;3.60;2.92;;;0.50;99.90;;;;;;4837128;28;20030;-70
2024/02/09 07:37:18;;;;;;;2.83;2.58;;;0.50;99.90;;;;;;4862446;28;21794;-69
2024/02/09 07:39:43;;;;;;;3.15;2.85;;;0.50;99.90;;;;;;4923254;28;20034;-68
2024/02/09 07:42:09;;;;;;;4.63;3.45;;;0.50;99.90;;;;;;4889375;28;20197;-67
2024/02/09 07:44:36;;;;;;;3.55;3.05;;;0.50;99.90;;;;;;4929522;28;20117;-68
2024/02/09 07:47:05;;;;;;;4.88;3.83;;;0.50;99.90;;;;;;4889851;28;20505;-67
2024/02/09 07:49:31;;;;;;;4.00;2.90;;;0.50;99.90;;;;;;4928425;28;20069;-68
2024/02/09 07:51:58;;;;;;;3.35;2.85;;;0.50;99.90;;;;;;4938427;28;20038;-70
2024/02/09 07:54:26;;;;;;;4.80;3.15;;;0.50;99.90;;;;;;4890029;28;20561;-69
2024/02/09 07:56:51;;;;;;;3.67;3.05;;;0.60;99.90;;;;;;4914316;28;20069;-68
2024/02/09 07:59:17;;;;;;;3.92;2.90;;;0.50;99.90;;;;;;4905546;28;20026;-69
2024/02/09 08:01:42;;;;;;;3.22;2.92;;;0.60;99.90;;;;;;4925728;28;20419;-68
2024/02/09 08:04:08;;;;;;;2.83;2.63;;;0.50;99.90;;;;;;4908300;28;20406;-71
2024/02/09 08:06:34;;;;;;;3.38;2.50;;;0.50;99.90;;;;;;4982794;28;20502;-67
2024/02/09 08:08:59;;;;;;;3.50;2.72;;;0.60;99.90;;;;;;4886706;28;20042;-69
2024/02/09 08:11:26;;;;;;;3.42;2.78;;;0.60;99.90;;;;;;4897419;28;20031;-69
2024/02/09 08:13:52;;;;;;;6.10;3.00;;;0.60;99.90;;;;;;4907057;28;20041;-69
2024/02/09 08:16:20;;;;;;;4.35;3.08;;;0.60;99.90;;;;;;4927455;28;22288;-66
2024/02/09 08:18:45;;;;;;;3.47;2.67;;;0.60;99.90;;;;;;4963490;28;20505;-69
2024/02/09 08:21:12;;;;;;;3.55;2.80;;;0.60;99.90;;;;;;4881188;28;20038;-69
2024/02/09 08:23:39;;;;;;;3.28;2.95;;;0.60;99.90;;;;;;4924599;28;20121;-67
2024/02/09 08:26:05;;;;;;;2.72;2.28;;;0.60;99.90;;;;;;4924373;28;20443;-67
2024/02/09 08:28:31;;;;;;;3.55;2.80;;;0.70;99.90;;;;;;4917616;28;20046;-69
2024/02/09 08:30:57;;;;;;;2.83;2.60;;;0.60;99.90;;;;;;4939635;28;20046;-70
2024/02/09 08:33:23;;;;;;;2.60;2.40;;;0.70;99.90;;;;;;4898251;28;20571;-67
2024/02/09 08:35:49;;;;;;;3.13;2.83;;;0.70;99.90;;;;;;4880057;28;20101;-67
2024/02/09 08:38:15;;;;;;;3.33;2.70;;;0.70;99.90;;;;;;4889084;28;20030;-67
2024/02/09 08:40:40;;;;;;;2.92;2.47;;;0.70;99.90;;;;;;4948862;28;20030;-67
2024/02/09 08:43:06;;;;;;;2.95;2.63;;;0.70;99.90;;;;;;4926081;28;20031;-70
2024/02/09 08:45:32;;;;;;;3.67;2.50;;;0.70;99.90;;;;;;4946450;28;20057;-69
2024/02/09 08:47:57;;;;;;;3.03;2.65;;;0.70;99.90;;;;;;4918923;28;20030;-68
2024/02/09 08:50:23;;;;;;;3.58;2.63;;;0.70;99.90;;;;;;4954607;28;20030;-68
2024/02/09 08:52:48;;;;;;;3.35;2.67;;;0.70;99.90;;;;;;4939071;28;20177;-70
2024/02/09 08:55:14;;;;;;;4.28;2.83;;;0.70;99.90;;;;;;4934440;28;20032;-67
2024/02/09 08:57:42;;;;;;;3.35;2.55;;;0.80;99.90;;;;;;4975987;28;20057;-66
2024/02/09 09:00:08;;;;;;;2.70;2.42;;;0.80;99.90;;;;;;4953474;28;20030;-67
2024/02/09 09:02:34;;;;;;;3.10;2.80;;;0.80;99.90;;;;;;4954426;28;20023;-67
2024/02/09 09:04:59;;;;;;;4.05;2.50;;;0.80;99.90;;;;;;4957073;28;20026;-67
2024/02/09 09:07:25;;;;;;;3.97;2.72;;;0.80;99.90;;;;;;4963623;28;20045;-66
2024/02/09 09:09:50;;;;;;;3.40;2.92;;;0.80;99.90;;;;;;4970383;28;20034;-69
2024/02/09 09:12:16;;;;;;;2.92;2.42;;;0.80;99.90;;;;;;4950293;28;20534;-66
2024/02/09 09:14:42;;;;;;;3.85;2.95;;;0.80;99.90;;;;;;4947881;28;20026;-70
2024/02/09 09:17:07;;;;;;;3.30;2.67;;;0.80;99.90;;;;;;4942841;28;20018;-68
2024/02/09 09:19:33;;;;;;;4.20;2.75;;;0.80;99.90;;;;;;4962399;28;20037;-67
2024/02/09 09:21:58;;;;;;;3.15;2.53;;;0.80;99.90;;;;;;4946152;28;20022;-67
2024/02/09 09:24:24;;;;;;;3.15;2.35;;;0.80;99.90;;;;;;4903690;28;20042;-67
2024/02/09 09:26:49;;;;;;;3.97;2.70;;;0.80;99.90;;;;;;4906048;28;20078;-67
2024/02/09 09:29:15;;;;;;;3.80;2.63;;;0.80;99.90;;;;;;4942959;28;20038;-67
2024/02/09 09:31:41;;;;;;;3.13;2.65;;;0.80;99.90;;;;;;4956358;28;20491;-67
2024/02/09 09:34:08;;;;;;;3.17;2.63;;;0.80;99.90;;;;;;4962834;28;20035;-67
2024/02/09 09:36:34;;;;;;;4.32;3.00;;;0.80;99.90;;;;;;4897566;28;20058;-67
2024/02/09 09:39:05;;;;;;;4.53;3.03;;;0.80;99.90;;;;;;4908668;28;20029;-67
2024/02/09 09:41:40;;;;;;;3.92;3.15;;;0.70;99.90;;;;;;4916161;28;20023;-68
2024/02/09 09:44:06;;;;;;;4.93;2.90;;;0.70;99.90;;;;;;4925074;28;21610;-68
2024/02/09 09:46:34;;;;;;;2.80;2.33;;;0.80;99.90;;;;;;4957223;28;22464;-67
2024/02/09 09:49:02;;;;;;;3.25;2.35;;;0.80;99.90;;;;;;4963555;28;20026;-68
2024/02/09 09:51:33;;;;;;;1.90;1.70;;;0.80;99.90;;;;;;4925413;28;20032;-69
2024/02/09 09:54:00;;;;;;;2.72;2.15;;;0.80;99.90;;;;;;4951289;28;20113;-68
2024/02/09 09:56:28;;;;;;;2.75;2.35;;;0.80;99.90;;;;;;4930872;28;20038;-69
2024/02/09 09:58:54;;;;;;;1.98;1.85;;;0.80;99.90;;;;;;4946429;28;20023;-68
2024/02/09 10:01:20;;;;;;;2.15;1.95;;;0.80;99.90;;;;;;4932923;28;20026;-69
2024/02/09 10:03:47;;;;;;;4.13;2.08;;;0.80;99.90;;;;;;4939328;28;20097;-69
2024/02/09 10:06:12;;;;;;;3.20;1.80;;;0.80;99.90;;;;;;4930199;28;20042;-69
2024/02/09 10:08:38;;;;;;;2.33;2.13;;;0.80;99.90;;;;;;4924666;28;20105;-69
2024/02/09 10:11:06;;;;;;;3.42;1.95;;;0.80;99.90;;;;;;4921481;28;20117;-68
2024/02/09 10:13:33;;;;;;;4.18;2.63;;;0.80;99.90;;;;;;4953539;28;22791;-69
2024/02/09 10:16:03;;;;;;;3.50;2.60;;;0.80;99.90;;;;;;4949507;28;20026;-69
2024/02/09 10:18:40;;;;;;;6.22;3.33;;;0.80;99.90;;;;;;4886630;28;20518;-69
2024/02/09 10:21:09;;;;;;;;;;;0.80;99.90;;;;;;4919769;28;20056;-69
2024/02/09 10:23:35;;;;;;;4.70;2.25;;;0.80;99.90;;;;;;4930665;28;19914;-68
2024/02/09 10:26:05;;;;;;;3.55;1.80;;;0.90;99.90;;;;;;4923946;28;20097;-66
2024/02/09 10:28:31;;;;;;;3.38;2.35;;;0.90;99.90;;;;;;4949868;28;22427;-69
2024/02/09 10:31:00;;;;;;;3.05;1.92;;;0.90;99.90;;;;;;4962016;28;20102;-69
2024/02/09 10:33:26;;;;;;;3.20;2.20;;;0.90;99.90;;;;;;4923758;28;20073;-67
2024/02/09 10:35:55;;;;;;;2.30;1.88;;;0.90;99.90;;;;;;4920123;28;20650;-68
2024/02/09 10:38:22;;;;;;;2.65;2.30;;;1.00;99.90;;;;;;4923093;28;20042;-67
2024/02/09 10:40:54;;;;;;;3.08;1.95;;;1.00;99.90;;;;;;4943588;28;20023;-67
2024/02/09 10:43:27;;;;;;;1.83;1.63;;;1.00;99.90;;;;;;4910376;28;20042;-66
2024/02/09 10:45:53;;;;;;;2.58;2.28;;;1.00;99.90;;;;;;4948835;28;20395;-71
2024/02/09 10:48:22;;;;;;;2.53;2.03;;;1.00;99.90;;;;;;4914964;28;20022;-69
2024/02/09 10:50:53;;;;;;;4.00;2.40;;;1.00;99.90;;;;;;4919338;28;20030;-66
2024/02/09 10:53:24;;;;;;;2.88;2.03;;;1.10;99.90;;;;;;4917864;28;21565;-68
2024/02/09 10:56:02;;;;;;;2.35;2.15;;;1.00;99.90;;;;;;4942686;28;20067;-67
2024/02/09 10:58:33;;;;;;;1.92;1.70;;;1.00;99.90;;;;;;4937845;28;20026;-66
2024/02/09 11:00:59;;;;;;;2.50;1.55;;;1.00;99.90;;;;;;4958044;28;20033;-66
2024/02/09 11:03:25;;;;;;;1.45;1.35;;;1.00;99.90;;;;;;4911146;28;20022;-67
2024/02/09 11:05:52;;;;;;;3.17;1.67;;;1.00;99.90;;;;;;4913769;28;20742;-67
2024/02/09 11:08:18;;;;;;;4.38;1.75;;;1.00;99.90;;;;;;4913911;28;21346;-68
2024/02/09 11:10:43;;;;;;;1.50;1.40;;;1.00;99.90;;;;;;4936707;28;20050;-69
2024/02/09 11:13:10;;;;;;;3.33;1.92;;;1.00;99.90;;;;;;4939533;28;20038;-70
2024/02/09 11:15:38;;;;;;;2.10;1.42;;;1.00;99.90;;;;;;4915670;28;20022;-68
2024/02/09 11:18:07;;;;;;;2.10;1.77;;;1.00;99.90;;;;;;4903856;28;20556;-67
2024/02/09 11:20:32;;;;;;;1.42;1.30;;;1.00;99.90;;;;;;4913348;28;20137;-66
2024/02/09 11:23:00;;;;;;;1.75;1.40;;;1.00;99.90;;;;;;4918469;28;20125;-69
2024/02/09 11:25:27;;;;;;;2.15;1.55;;;1.00;99.90;;;;;;4935157;28;20544;-69
2024/02/09 11:27:55;;;;;;;1.58;1.23;;;1.00;99.90;;;;;;4940016;28;20437;-68
2024/02/09 11:30:21;;;;;;;1.17;1.08;;;1.00;99.90;;;;;;4893136;28;20027;-67
2024/02/09 11:32:51;;;;;;;1.77;1.38;;;1.00;99.90;;;;;;4901952;28;20053;-69
2024/02/09 11:35:18;;;;;;;2.30;1.50;;;1.00;99.90;;;;;;4914314;28;21675;-67
2024/02/09 11:37:44;;;;;;;1.75;1.35;;;1.00;99.90;;;;;;4938791;28;20038;-69
2024/02/09 11:40:15;;;;;;;1.67;1.30;;;1.00;99.90;;;;;;4931788;28;20034;-69
2024/02/09 11:42:41;;;;;;;1.85;1.33;;;1.00;99.90;;;;;;4943681;28;20037;-67
2024/02/09 11:45:09;;;;;;;1.52;1.20;;;1.00;99.90;;;;;;4902647;28;21801;-67
2024/02/09 11:47:39;;;;;;;3.17;1.27;;;1.00;99.90;;;;;;4930312;28;20494;-68
2024/02/09 11:50:18;;;;;;;1.83;1.30;;;1.00;99.90;;;;;;4890310;28;20596;-67
2024/02/09 11:52:43;;;;;;;1.65;1.40;;;1.10;99.90;;;;;;4938910;28;20042;-66
2024/02/09 11:55:09;;;;;;;1.40;1.30;;;1.10;99.90;;;;;;4949130;28;20254;-69
2024/02/09 11:57:34;;;;;;;3.30;1.48;;;1.10;99.90;;;;;;4901982;28;20026;-67
2024/02/09 12:00:00;;;;;;;1.65;1.13;;;1.10;99.90;;;;;;4881351;28;20403;-66
2024/02/09 12:02:26;;;;;;;1.45;1.27;;;1.10;99.90;;;;;;4924211;28;20026;-66
2024/02/09 12:04:51;;;;;;;1.33;1.20;;;1.10;99.90;;;;;;4920576;28;20022;-67
2024/02/09 12:07:17;;;;;;;3.03;1.77;;;1.10;99.90;;;;;;4913217;28;20099;-69
2024/02/09 12:09:43;;;;;;;1.48;1.15;;;1.10;99.90;;;;;;4940132;28;20513;-68
2024/02/09 12:12:08;;;;;;;1.45;1.10;;;1.10;99.90;;;;;;4904147;28;20030;-70
2024/02/09 12:14:34;;;;;;;1.25;1.10;;;1.20;99.90;;;;;;4901739;28;20080;-67
2024/02/09 12:17:00;;;;;;;2.20;1.10;;;1.20;99.90;;;;;;4921270;28;20407;-71
2024/02/09 12:19:26;;;;;;;1.33;1.00;;;1.10;99.90;;;;;;4914770;28;20019;-69
2024/02/09 12:21:52;;;;;;;1.10;1.00;;;1.10;99.90;;;;;;4946736;28;20077;-66
2024/02/09 12:24:17;;;;;;;1.73;0.88;;;1.20;99.90;;;;;;4891152;28;20221;-66
2024/02/09 12:26:43;;;;;;;1.13;1.02;;;1.20;99.90;;;;;;4895657;28;20060;-66
2024/02/09 12:29:12;;;;;;;1.45;1.17;;;1.20;99.90;;;;;;4869364;28;20033;-67
2024/02/09 12:31:43;;;;;;;1.52;1.20;;;1.20;99.90;;;;;;4909177;28;21236;-65
2024/02/09 12:34:09;;;;;;;1.10;1.00;;;1.20;99.90;;;;;;4921665;28;20030;-69
2024/02/09 12:36:36;;;;;;;0.90;0.80;;;1.20;99.90;;;;;;4879410;28;20510;-66
2024/02/09 12:39:07;;;;;;;1.90;1.10;;;1.20;99.90;;;;;;4879856;28;20022;-66
2024/02/09 12:41:32;;;;;;;0.73;0.73;;;1.20;99.90;;;;;;4906761;28;20109;-67
2024/02/09 12:44:03;;;;;;;1.10;1.00;;;1.20;99.90;;;;;;4931137;28;20706;-69
2024/02/09 12:46:29;;;;;;;1.35;1.00;;;1.20;99.90;;;;;;4929308;28;20041;-68
2024/02/09 12:48:55;;;;;;;1.23;0.90;;;1.30;99.90;;;;;;4943817;28;20117;-67
2024/02/09 12:51:22;;;;;;;1.83;1.17;;;1.30;99.90;;;;;;4876048;28;20030;-71
2024/02/09 12:53:48;;;;;;;1.20;1.10;;;1.30;99.90;;;;;;4892870;28;20034;-69
2024/02/09 12:56:14;;;;;;;1.55;1.13;;;1.30;99.90;;;;;;4892721;28;20069;-67
2024/02/09 12:58:40;;;;;;;1.08;0.98;;;1.30;99.90;;;;;;4916460;28;20030;-67
2024/02/09 13:01:06;;;;;;;1.55;1.40;;;1.30;99.90;;;;;;4924092;28;20026;-68
2024/02/09 13:03:33;;;;;;;1.92;1.52;;;1.30;99.90;;;;;;4873560;28;20035;-68
2024/02/09 13:06:00;;;;;;;1.25;1.15;;;1.30;99.90;;;;;;4890843;28;20030;-67
2024/02/09 13:08:29;;;;;;;0.93;0.80;;;1.30;99.90;;;;;;4892122;28;21594;-67
2024/02/09 13:10:54;;;;;;;1.55;1.00;;;1.30;99.90;;;;;;4927934;28;20129;-68
2024/02/09 13:13:21;;;;;;;1.38;1.10;;;1.40;99.90;;;;;;4886566;28;20617;-68
2024/02/09 13:15:48;;;;;;;1.58;1.30;;;1.30;99.90;;;;;;4910947;28;20114;-67
2024/02/09 13:18:14;;;;;;;1.70;1.00;;;1.40;99.90;;;;;;4857356;28;20051;-67
2024/02/09 13:20:42;;;;;;;1.48;1.15;;;1.40;99.90;;;;;;4895809;28;20132;-67
2024/02/09 13:23:08;;;;;;;2.47;1.90;;;1.40;99.90;;;;;;4885669;28;20027;-67
2024/02/09 13:25:35;;;;;;;2.33;2.13;;;1.40;99.90;;;;;;4904067;28;20037;-68
2024/02/09 13:28:02;;;;;;;1.95;1.73;;;1.40;99.90;;;;;;4963905;28;20038;-69
2024/02/09 13:30:28;;;;;;;3.03;2.33;;;1.40;99.90;;;;;;4891996;28;20026;-68
2024/02/09 13:32:55;;;;;;;2.20;1.92;;;1.40;99.90;;;;;;4915695;28;20033;-69
2024/02/09 13:35:21;;;;;;;1.25;1.15;;;1.40;99.90;;;;;;4914792;28;20543;-67
2024/02/09 13:37:49;;;;;;;1.10;1.00;;;1.50;99.90;;;;;;4919446;28;20049;-68
2024/02/09 13:40:16;;;;;;;1.30;1.20;;;1.40;99.90;;;;;;4901097;28;20049;-68
2024/02/09 13:42:50;;;;;;;1.67;1.27;;;1.40;99.90;;;;;;4888617;28;20022;-67
2024/02/09 13:45:26;;;;;;;2.22;1.70;;;1.50;99.90;;;;;;4871288;28;20081;-68
2024/02/09 13:47:52;;;;;;;1.40;1.13;;;1.50;99.90;;;;;;4936549;28;20532;-68
2024/02/09 13:50:19;;;;;;;2.22;1.77;;;1.50;99.90;;;;;;4970695;28;20105;-68
2024/02/09 13:52:45;;;;;;;9.30;5.43;;;1.50;99.90;;;;;;4968985;28;20039;-67
2024/02/09 13:55:15;;;;;;;2.45;2.25;;;1.50;99.90;;;;;;4960013;28;20073;-66
2024/02/09 13:57:56;;;;;;;1.52;1.42;;;1.50;99.90;;;;;;4953565;28;20026;-66
2024/02/09 14:00:24;;;;;;;1.20;1.10;;;1.60;99.90;;;;;;4938575;28;20022;-67
2024/02/09 14:02:49;;;;;;;1.50;1.38;;;1.60;99.90;;;;;;4947890;28;20019;-67
2024/02/09 14:05:16;;;;;;;5.40;2.65;;;1.60;99.90;;;;;;4952436;28;20069;-66
2024/02/09 14:07:42;;;;;;;2.55;2.00;;;1.60;99.90;;;;;;4957557;28;20116;-67
2024/02/09 14:10:12;;;;;;;1.20;1.10;;;1.60;99.90;;;;;;4956053;28;20034;-67
2024/02/09 14:12:40;;;;;;;1.20;1.10;;;1.60;99.90;;;;;;4949181;28;20026;-66
2024/02/09 14:15:08;;;;;;;2.90;1.63;;;1.60;99.90;;;;;;4937588;28;22194;-67
2024/02/09 14:17:35;;;;;;;1.45;1.25;;;1.60;99.90;;;;;;4956860;28;20049;-68
2024/02/09 14:20:01;;;;;;;1.55;1.35;;;1.60;99.90;;;;;;4948102;28;20037;-67
2024/02/09 14:22:28;;;;;;;1.98;1.77;;;1.60;99.90;;;;;;4946800;28;20068;-68
2024/02/09 14:24:56;;;;;;;1.70;1.60;;;1.60;99.90;;;;;;4959645;28;20030;-67
2024/02/09 14:27:24;;;;;;;2.80;1.83;;;1.60;99.90;;;;;;4934276;28;20028;-67
2024/02/09 14:29:52;;;;;;;2.63;2.40;;;1.60;99.90;;;;;;4946715;28;20030;-69
2024/02/09 14:32:18;;;;;;;1.73;1.58;;;1.60;99.90;;;;;;4951074;28;20026;-67
2024/02/09 14:34:44;;;;;;;2.50;2.30;;;1.70;99.90;;;;;;4948723;28;20125;-66
2024/02/09 14:37:09;;;;;;;2.58;1.90;;;1.70;99.90;;;;;;4948192;28;20084;-66
2024/02/09 14:39:36;;;;;;;3.63;2.20;;;1.70;99.90;;;;;;4925503;28;20458;-67
2024/02/09 14:42:02;;;;;;;1.70;1.60;;;1.60;99.90;;;;;;4926366;28;20022;-67
2024/02/09 14:44:30;;;;;;;2.10;1.90;;;1.70;99.90;;;;;;4938709;28;20057;-67